»·PEaware :: N448RA KBFL-KSMO

N448RA :: KBFL-KSMO

FLIGHT INFORMATION

Flight Status: Arrived
Operator: Privately registered:
United States
More flights under this callsign
Pilot: Scott M. (16181)
Aircraft: Unknown
(DA62)
More flights by this aircraft type
Origin: KBFL Meadows
United States
Destination: KSMO Santa Monica Mun
United States
More flights between these airports :: More routes between these airports
Route:
File this flight plan on PilotEdge
Remarks:
Altitude:
(Current/Filed)
7,500ft
Speed:
(Current/Filed)
170kts
Departed: 05-Aug-18 04:49 PM
Arrived: 05-Aug-18 05:30 PM
Distance/Time
Traveled:
90nm/0:40
Distance/Time
To Go:
Arrived

Flight Plot

Page will automatically refresh every two minutes.


Map Options




Map Legend


Flown Route
Filed Route
Departure Airport
Arrival Airport
Navaid (VOR, NDB)
Fix

Horizontal Profiles

Position Reports

Time Latitude Longitude Heading Altitude Ground
Speed
05-Aug-18 16:38 35.429368 -119.046105 226 494ft 0kts
05-Aug-18 16:39 35.429368 -119.046105 226 494ft 0kts
05-Aug-18 16:40 35.429368 -119.046105 226 494ft 0kts
05-Aug-18 16:41 35.429368 -119.046105 226 494ft 0kts
05-Aug-18 16:42 35.429368 -119.046105 226 494ft 0kts
05-Aug-18 16:43 35.429368 -119.046105 226 494ft 0kts
05-Aug-18 16:44 35.429368 -119.046105 226 494ft 0kts
05-Aug-18 16:45 35.429368 -119.046105 226 494ft 0kts
05-Aug-18 16:46 35.429323 -119.046166 229 494ft 1kts
05-Aug-18 16:47 35.426925 -119.045587 134 483ft 17kts
05-Aug-18 16:48 35.425743 -119.044730 225 480ft 0kts
05-Aug-18 16:49 35.425614 -119.044928 237 479ft 9kts
05-Aug-18 16:50 35.433678 -119.056371 313 749ft 78kts
05-Aug-18 16:51 35.446707 -119.083229 237 1349ft 128kts
05-Aug-18 16:52 35.416443 -119.069544 148 1854ft 141kts
05-Aug-18 16:53 35.383023 -119.046783 149 2751ft 142kts
05-Aug-18 16:54 35.347540 -119.030691 168 3687ft 135kts
05-Aug-18 16:55 35.311828 -119.019299 169 4679ft 131kts
05-Aug-18 16:56 35.276901 -119.008357 169 5673ft 129kts
05-Aug-18 16:57 35.242348 -118.997550 169 6672ft 128kts
05-Aug-18 16:58 35.207698 -118.986749 169 7508ft 140kts
05-Aug-18 16:59 35.165086 -118.973428 168 7521ft 168kts
05-Aug-18 17:00 35.119243 -118.959119 168 7539ft 171kts
05-Aug-18 17:01 35.073345 -118.944820 168 7565ft 171kts
05-Aug-18 17:02 35.027138 -118.930446 168 7595ft 172kts
05-Aug-18 17:03 34.980908 -118.916080 168 7607ft 173kts
05-Aug-18 17:04 34.934189 -118.901516 168 7619ft 173kts
05-Aug-18 17:05 34.889299 -118.887572 168 7629ft 174kts
05-Aug-18 17:06 34.842561 -118.873108 168 7636ft 174kts
05-Aug-18 17:07 34.795922 -118.857799 163 7611ft 177kts
05-Aug-18 17:08 34.749734 -118.838518 163 7611ft 175kts
05-Aug-18 17:09 34.703612 -118.819333 163 7333ft 178kts
05-Aug-18 17:10 34.657149 -118.799985 163 6634ft 176kts
05-Aug-18 17:11 34.611452 -118.780982 163 5932ft 171kts
05-Aug-18 17:12 34.568163 -118.763002 163 5524ft 152kts
05-Aug-18 17:13 34.529535 -118.747001 163 5352ft 149kts
05-Aug-18 17:14 34.489212 -118.730305 163 4868ft 155kts
05-Aug-18 17:15 34.448674 -118.713543 163 4372ft 153kts
05-Aug-18 17:16 34.408592 -118.697055 163 3876ft 152kts
05-Aug-18 17:17 34.371079 -118.681556 163 3847ft 132kts
05-Aug-18 17:18 34.337924 -118.667891 163 3933ft 122kts
05-Aug-18 17:19 34.304838 -118.654258 162 4008ft 131kts
05-Aug-18 17:20 34.268379 -118.639237 161 3617ft 138kts
05-Aug-18 17:21 34.233678 -118.624950 161 3495ft 129kts
05-Aug-18 17:22 34.200119 -118.610439 148 3498ft 129kts
05-Aug-18 17:23 34.170821 -118.584889 143 3412ft 133kts
05-Aug-18 17:24 34.143024 -118.555672 140 3083ft 130kts
05-Aug-18 17:25 34.114444 -118.528064 144 2455ft 132kts
05-Aug-18 17:26 34.087056 -118.498978 134 2138ft 118kts
05-Aug-18 17:27 34.071348 -118.469951 126 1855ft 103kts
05-Aug-18 17:28 34.052415 -118.446099 144 1281ft 91kts
05-Aug-18 17:29 34.032334 -118.432713 195 720ft 77kts
05-Aug-18 17:30 34.016778 -118.450042 225 145ft 63kts
05-Aug-18 17:31 34.015045 -118.453208 345 135ft 5kts
05-Aug-18 17:32 34.018089 -118.450074 6 150ft 7kts

Navigation Log

Ident Type
1. KBFL Airport
2. KSMO Airport